»·PEaware :: N5832H KSNA-KVCV

N5832H :: KSNA-KVCV

FLIGHT INFORMATION

Flight Status: Arrived
Operator: Privately registered:
United States
More flights under this callsign
Pilot: Fernando A. (32251)
Aircraft: CESSNA 172 SKYHAWK
(C172)
More flights by this aircraft type
Origin: KSNA John Wayne-Orange Co
United States
Destination: KVCV Socal Logistics
United States
More flights between these airports :: More routes between these airports
Route:
File this flight plan on PilotEdge
Remarks:
Altitude:
(Current/Filed)
3,500ft
Speed:
(Current/Filed)
110kts
Departed: 08-Nov-20 12:13 PM
Arrived: 08-Nov-20 01:04 PM
Distance/Time
Traveled:
60nm/0:51
Distance/Time
To Go:
Arrived

Flight Plot

Page will automatically refresh every two minutes.


Map Options




Map Legend


Flown Route
Filed Route
Departure Airport
Arrival Airport
Navaid (VOR, NDB)
Fix

Horizontal Profiles

Position Reports

Time Latitude Longitude Heading Altitude Ground
Speed
08-Nov-20 11:59 33.671283 -117.867802 93 52ft 0kts
08-Nov-20 12:00 33.671283 -117.867802 93 52ft 0kts
08-Nov-20 12:01 33.671283 -117.867802 93 52ft 0kts
08-Nov-20 12:02 33.671283 -117.867802 93 52ft 0kts
08-Nov-20 12:03 33.671283 -117.867802 93 52ft 0kts
08-Nov-20 12:04 33.671283 -117.867802 93 52ft 0kts
08-Nov-20 12:05 33.671283 -117.867802 93 52ft 0kts
08-Nov-20 12:06 33.671283 -117.867802 93 52ft 0kts
08-Nov-20 12:07 33.671493 -117.867993 254 53ft 4kts
08-Nov-20 12:08 33.672986 -117.867450 54 56ft 9kts
08-Nov-20 12:09 33.675110 -117.866476 25 56ft 15kts
08-Nov-20 12:10 33.678980 -117.864017 28 47ft 16kts
08-Nov-20 12:11 33.679957 -117.863616 298 45ft 0kts
08-Nov-20 12:12 33.678676 -117.865108 207 48ft 43kts
08-Nov-20 12:13 33.665959 -117.878445 300 602ft 71kts
08-Nov-20 12:14 33.688341 -117.884727 352 1202ft 89kts
08-Nov-20 12:15 33.713846 -117.891022 345 1680ft 99kts
08-Nov-20 12:16 33.740163 -117.893290 22 2201ft 96kts
08-Nov-20 12:17 33.763834 -117.878531 24 2720ft 95kts
08-Nov-20 12:18 33.789052 -117.866809 17 3315ft 100kts
08-Nov-20 12:19 33.819120 -117.860145 5 3451ft 120kts
08-Nov-20 12:20 33.852434 -117.857019 1 3494ft 120kts
08-Nov-20 12:21 33.886032 -117.854246 4 3498ft 122kts
08-Nov-20 12:22 33.919525 -117.849635 11 3499ft 122kts
08-Nov-20 12:23 33.952356 -117.838423 16 3498ft 122kts
08-Nov-20 12:24 33.983915 -117.823422 23 3501ft 122kts
08-Nov-20 12:25 34.015027 -117.806457 23 3499ft 122kts
08-Nov-20 12:26 34.046882 -117.792426 14 3502ft 122kts
08-Nov-20 12:27 34.079861 -117.782067 12 3501ft 122kts
08-Nov-20 12:28 34.111388 -117.767861 34 3500ft 122kts
08-Nov-20 12:29 34.133016 -117.736655 62 3502ft 123kts
08-Nov-20 12:30 34.147764 -117.699510 74 3499ft 122kts
08-Nov-20 12:31 34.154941 -117.659131 79 3640ft 120kts
08-Nov-20 12:32 34.160476 -117.622082 84 4227ft 106kts
08-Nov-20 12:33 34.165253 -117.587699 63 4834ft 102kts
08-Nov-20 12:34 34.178583 -117.557188 62 5406ft 106kts
08-Nov-20 12:35 34.189781 -117.521158 78 5496ft 120kts
08-Nov-20 12:36 34.208401 -117.489852 24 5489ft 122kts
08-Nov-20 12:37 34.240871 -117.480652 8 5500ft 119kts
08-Nov-20 12:38 34.273961 -117.475301 6 5499ft 120kts
08-Nov-20 12:39 34.307225 -117.469492 8 5502ft 121kts
08-Nov-20 12:40 34.340903 -117.462999 8 5503ft 122kts
08-Nov-20 12:41 34.374116 -117.453273 18 5496ft 122kts
08-Nov-20 12:42 34.406316 -117.440061 17 5499ft 122kts
08-Nov-20 12:43 34.438742 -117.427833 16 5499ft 121kts
08-Nov-20 12:44 34.469876 -117.416729 15 5502ft 118kts
08-Nov-20 12:45 34.501752 -117.405402 16 5442ft 115kts
08-Nov-20 12:46 34.532702 -117.396159 10 4301ft 109kts
08-Nov-20 12:47 34.559523 -117.382049 28 3893ft 98kts
08-Nov-20 12:48 34.579916 -117.358101 47 3886ft 103kts
08-Nov-20 12:49 34.599730 -117.334043 9 3904ft 102kts
08-Nov-20 12:51 34.609981 -117.355419 223 3167ft 79kts
08-Nov-20 12:52 34.595613 -117.372458 224 2869ft 68kts
08-Nov-20 12:53 34.581108 -117.389755 223 3475ft 75kts
08-Nov-20 12:54 34.568322 -117.379845 53 3897ft 94kts
08-Nov-20 12:55 34.588151 -117.355637 45 3889ft 106kts
08-Nov-20 12:56 34.610192 -117.335443 336 3655ft 99kts
08-Nov-20 12:57 34.609650 -117.355769 226 3128ft 80kts
08-Nov-20 12:58 34.595581 -117.372487 225 2860ft 64kts
08-Nov-20 12:59 34.581320 -117.389730 221 3474ft 69kts
08-Nov-20 13:00 34.565964 -117.382041 101 3915ft 93kts
08-Nov-20 13:01 34.584629 -117.354458 48 3899ft 108kts
08-Nov-20 13:02 34.606705 -117.333500 338 3703ft 107kts
08-Nov-20 13:03 34.609890 -117.355474 226 3175ft 80kts
08-Nov-20 13:04 34.596463 -117.371435 224 2859ft 31kts
08-Nov-20 13:05 34.594045 -117.372725 173 2860ft 3kts
08-Nov-20 13:06 34.591304 -117.374675 222 2864ft 16kts
08-Nov-20 13:07 34.588850 -117.374988 137 2867ft 11kts
08-Nov-20 13:07 34.588646 -117.374542 43 2867ft 0kts
08-Nov-20 13:09 34.588646 -117.374542 43 2867ft 0kts
08-Nov-20 13:09 34.588646 -117.374542 43 2867ft 0kts
08-Nov-20 13:11 34.588646 -117.374542 43 2867ft 0kts

Navigation Log

Ident Type
Flight plan parsing failed, navigation log unavailable